createdAt,value
2017-07-17T00:02:02.939Z,3.70
2017-07-17T00:04:31.830Z,3.58
2017-07-17T00:07:00.715Z,3.55
2017-07-17T00:09:30.358Z,3.10
2017-07-17T00:11:59.225Z,3.72
2017-07-17T00:14:28.105Z,3.15
2017-07-17T00:16:57.766Z,3.80
2017-07-17T00:19:26.662Z,4.07
2017-07-17T00:21:55.554Z,3.87
2017-07-17T00:24:24.444Z,5.03
2017-07-17T00:26:53.338Z,4.25
2017-07-17T00:29:22.208Z,3.95
2017-07-17T00:31:51.076Z,3.90
2017-07-17T00:34:19.958Z,3.70
2017-07-17T00:36:49.617Z,3.58
2017-07-17T00:39:18.500Z,3.45
2017-07-17T00:41:47.367Z,3.80
2017-07-17T00:44:16.241Z,3.67
2017-07-17T00:46:45.895Z,3.65
2017-07-17T00:49:14.786Z,3.67
2017-07-17T00:51:43.667Z,4.00
2017-07-17T00:54:12.519Z,3.75
2017-07-17T00:56:42.123Z,3.37
2017-07-17T00:59:11.001Z,4.03
2017-07-17T01:01:39.885Z,3.42
2017-07-17T01:04:08.769Z,3.97
2017-07-17T01:06:37.653Z,4.43
2017-07-17T01:09:06.530Z,3.50
2017-07-17T01:11:35.399Z,4.07
2017-07-17T01:14:04.277Z,3.12
2017-07-17T01:16:33.925Z,3.92
2017-07-17T01:19:02.803Z,3.40
2017-07-17T01:21:31.687Z,4.32
2017-07-17T01:24:00.569Z,4.05
2017-07-17T01:26:29.453Z,5.07
2017-07-17T01:28:59.093Z,3.97
2017-07-17T01:31:27.975Z,3.85
2017-07-17T01:33:56.853Z,4.32
2017-07-17T01:36:25.741Z,3.95
2017-07-17T01:38:54.634Z,3.92
2017-07-17T01:41:23.529Z,4.80
2017-07-17T01:43:52.414Z,3.75
2017-07-17T01:46:21.275Z,3.50
2017-07-17T01:48:50.163Z,3.60
2017-07-17T01:51:18.686Z,3.65
2017-07-17T01:53:47.584Z,3.78
2017-07-17T01:56:16.482Z,3.85
2017-07-17T01:58:45.370Z,4.00
2017-07-17T02:01:14.250Z,3.83
2017-07-17T02:03:43.125Z,4.60
2017-07-17T02:06:12.780Z,3.70
2017-07-17T02:08:41.661Z,3.75
2017-07-17T02:11:10.549Z,4.18
2017-07-17T02:13:39.414Z,3.55
2017-07-17T02:16:09.024Z,4.05
2017-07-17T02:18:38.664Z,3.87
2017-07-17T02:21:07.544Z,3.70
2017-07-17T02:23:36.411Z,4.07
2017-07-17T02:26:06.052Z,3.40
2017-07-17T02:28:34.945Z,3.47
2017-07-17T02:31:03.822Z,3.53
2017-07-17T02:33:32.718Z,3.65
2017-07-17T02:36:01.556Z,3.12
2017-07-17T02:38:30.436Z,3.35
2017-07-17T02:40:59.327Z,3.47
2017-07-17T02:43:28.176Z,3.20
2017-07-17T02:45:57.044Z,3.65
2017-07-17T02:48:26.646Z,3.80
2017-07-17T02:50:55.536Z,3.50
2017-07-17T02:53:24.421Z,2.90
2017-07-17T02:55:53.293Z,3.85
2017-07-17T02:58:22.141Z,3.55
2017-07-17T03:00:50.999Z,3.60
2017-07-17T03:03:19.885Z,4.37
2017-07-17T03:05:48.766Z,4.55
2017-07-17T03:08:17.622Z,3.40
2017-07-17T03:10:46.470Z,3.20
2017-07-17T03:13:15.315Z,3.20
2017-07-17T03:15:44.212Z,3.50
2017-07-17T03:18:13.073Z,4.15
2017-07-17T03:20:41.966Z,4.37
2017-07-17T03:23:10.644Z,3.60
2017-07-17T03:28:19.844Z,3.50
2017-07-17T03:30:49.204Z,4.05
2017-07-17T03:33:18.069Z,4.20
2017-07-17T03:35:46.961Z,3.42
2017-07-17T03:38:16.618Z,5.00
2017-07-17T03:40:45.496Z,4.50
2017-07-17T03:43:30.432Z,4.72
2017-07-17T03:46:01.206Z,3.70
2017-07-17T03:48:30.118Z,3.90
2017-07-17T03:50:59.485Z,3.72
2017-07-17T03:53:28.373Z,4.07
2017-07-17T03:55:57.254Z,3.97
2017-07-17T03:58:26.900Z,4.40
2017-07-17T04:00:55.777Z,5.10
2017-07-17T04:03:24.648Z,4.75
2017-07-17T04:05:53.542Z,5.18
2017-07-17T04:08:22.426Z,4.40
2017-07-17T04:10:52.062Z,5.43
2017-07-17T04:13:20.944Z,4.22
2017-07-17T04:15:49.831Z,4.53
2017-07-17T04:18:18.705Z,4.45
2017-07-17T04:20:48.341Z,5.18
2017-07-17T04:23:17.221Z,5.10
2017-07-17T04:25:46.080Z,4.55
2017-07-17T04:28:14.961Z,5.03
2017-07-17T04:30:43.850Z,4.60
2017-07-17T04:33:12.724Z,5.00
2017-07-17T04:35:41.605Z,5.68
2017-07-17T04:38:10.481Z,4.50
2017-07-17T04:40:39.357Z,5.57
2017-07-17T04:43:08.210Z,4.75
2017-07-17T04:45:37.084Z,5.60
2017-07-17T04:48:05.986Z,5.40
2017-07-17T04:50:34.878Z,5.97
2017-07-17T04:53:03.757Z,4.82
2017-07-17T04:55:32.657Z,5.60
2017-07-17T04:58:01.531Z,5.50
2017-07-17T05:00:30.375Z,5.53
2017-07-17T05:02:59.988Z,6.53
2017-07-17T05:05:28.880Z,6.25
2017-07-17T05:07:57.743Z,5.97
2017-07-17T05:10:26.634Z,6.03
2017-07-17T05:12:55.522Z,6.20
2017-07-17T05:15:24.407Z,6.03
2017-07-17T05:17:53.293Z,7.15
2017-07-17T05:20:22.145Z,7.72
2017-07-17T05:22:51.037Z,6.28
2017-07-17T05:25:19.926Z,7.55
2017-07-17T05:27:48.815Z,7.57
2017-07-17T05:30:17.741Z,7.75
2017-07-17T05:32:46.460Z,7.97
2017-07-17T05:35:15.945Z,8.48
2017-07-17T05:37:44.825Z,7.72
2017-07-17T05:40:13.684Z,8.18
2017-07-17T05:42:42.537Z,7.40
2017-07-17T05:45:11.411Z,7.55
2017-07-17T05:47:40.300Z,7.75
2017-07-17T05:50:09.157Z,7.37
2017-07-17T05:52:38.041Z,7.93
2017-07-17T05:55:06.891Z,9.90
2017-07-17T05:57:35.773Z,7.75
2017-07-17T06:00:03.951Z,7.43
2017-07-17T06:02:32.805Z,7.65
2017-07-17T06:05:01.653Z,7.35
2017-07-17T06:07:31.310Z,7.62
2017-07-17T06:10:00.183Z,7.57
2017-07-17T06:12:29.045Z,6.90
2017-07-17T06:14:58.695Z,7.53
2017-07-17T06:17:27.578Z,8.43
2017-07-17T06:19:56.475Z,8.60
2017-07-17T06:22:25.359Z,8.32
2017-07-17T06:24:54.306Z,7.87
2017-07-17T06:27:23.200Z,8.95
2017-07-17T06:29:52.874Z,11.07
2017-07-17T06:32:21.760Z,8.57
2017-07-17T06:34:50.641Z,8.13
2017-07-17T06:37:19.528Z,8.60
2017-07-17T06:39:48.408Z,7.78
2017-07-17T06:42:17.281Z,9.18
2017-07-17T06:44:46.156Z,7.68
2017-07-17T06:47:15.002Z,7.90
2017-07-17T06:49:43.885Z,8.65
2017-07-17T06:52:12.760Z,8.80
2017-07-17T06:54:41.644Z,9.75
2017-07-17T06:57:10.201Z,10.05
2017-07-17T06:59:39.049Z,8.80
2017-07-17T07:02:07.947Z,9.82
2017-07-17T07:04:36.853Z,9.93
2017-07-17T07:07:05.757Z,10.38
2017-07-17T07:09:34.655Z,9.48
2017-07-17T07:12:03.567Z,10.45
2017-07-17T07:14:33.220Z,9.20
2017-07-17T07:17:02.108Z,9.23
2017-07-17T07:19:30.981Z,7.60
2017-07-17T07:21:59.868Z,7.20
2017-07-17T07:24:28.731Z,7.87
2017-07-17T07:26:57.613Z,6.35
2017-07-17T07:29:26.462Z,6.37
2017-07-17T07:31:55.305Z,5.85
2017-07-17T07:34:24.010Z,6.25
2017-07-17T07:36:52.888Z,6.07
2017-07-17T07:39:21.772Z,6.95
2017-07-17T07:41:50.485Z,7.22
2017-07-17T07:44:20.132Z,5.82
2017-07-17T07:46:49.010Z,6.97
2017-07-17T07:49:17.893Z,7.70
2017-07-17T07:51:46.792Z,7.95
2017-07-17T07:54:15.676Z,8.38
2017-07-17T07:56:44.562Z,8.38
2017-07-17T07:59:14.213Z,8.80
2017-07-17T08:01:43.122Z,10.75
2017-07-17T08:04:12.018Z,9.27
2017-07-17T08:06:40.893Z,8.00
2017-07-17T08:09:09.756Z,8.52
2017-07-17T08:11:38.660Z,7.47
2017-07-17T08:14:07.562Z,8.80
2017-07-17T08:16:36.446Z,8.05
2017-07-17T08:19:05.316Z,8.07
2017-07-17T08:21:34.194Z,6.68
2017-07-17T08:24:03.076Z,6.95
2017-07-17T08:26:32.735Z,7.37
2017-07-17T08:29:01.640Z,11.15
2017-07-17T08:31:30.533Z,12.57
2017-07-17T08:33:59.434Z,12.37
2017-07-17T08:36:28.329Z,10.20
2017-07-17T08:38:57.186Z,11.77
2017-07-17T08:41:26.098Z,12.10
2017-07-17T08:43:54.997Z,12.95
2017-07-17T08:46:23.906Z,13.00
2017-07-17T08:48:53.567Z,12.00
2017-07-17T08:51:22.460Z,11.77
2017-07-17T08:53:51.362Z,13.45
2017-07-17T08:56:20.271Z,13.02
2017-07-17T08:58:49.174Z,12.02
2017-07-17T09:01:18.062Z,10.77
2017-07-17T09:03:48.034Z,12.27
2017-07-17T09:06:16.933Z,12.02
2017-07-17T09:08:45.840Z,10.45
2017-07-17T09:11:14.733Z,10.63
2017-07-17T09:13:43.638Z,12.52
2017-07-17T09:16:12.557Z,10.90
2017-07-17T09:18:41.483Z,11.73
2017-07-17T09:21:11.857Z,11.05
2017-07-17T09:23:40.757Z,12.93
2017-07-17T09:26:10.419Z,12.98
2017-07-17T09:28:39.326Z,13.18
2017-07-17T09:31:08.220Z,12.77
2017-07-17T09:33:37.126Z,12.05
2017-07-17T09:36:06.029Z,11.48
2017-07-17T09:38:34.936Z,11.35
2017-07-17T09:41:03.861Z,11.32
2017-07-17T09:43:32.756Z,13.02
2017-07-17T09:46:01.650Z,12.68
2017-07-17T09:48:30.536Z,14.60
2017-07-17T09:50:59.451Z,12.52
2017-07-17T09:53:28.352Z,12.82
2017-07-17T09:55:57.248Z,12.45
2017-07-17T09:58:26.146Z,11.93
2017-07-17T10:00:55.056Z,12.70
2017-07-17T10:03:24.730Z,10.13
2017-07-17T10:05:53.634Z,11.73
2017-07-17T10:08:22.524Z,11.00
2017-07-17T10:10:51.422Z,9.30
2017-07-17T10:13:20.283Z,9.82
2017-07-17T10:15:49.207Z,10.55
2017-07-17T10:18:18.101Z,10.52
2017-07-17T10:20:46.999Z,8.18
2017-07-17T10:23:15.896Z,7.20
2017-07-17T10:25:45.369Z,9.90
2017-07-17T10:28:14.273Z,8.35
2017-07-17T10:30:43.169Z,9.52
2017-07-17T10:33:12.067Z,9.55
2017-07-17T10:35:40.964Z,10.60
2017-07-17T10:38:09.862Z,8.38
2017-07-17T10:40:39.535Z,10.80
2017-07-17T10:43:08.434Z,9.70
2017-07-17T10:45:37.291Z,9.35
2017-07-17T10:48:06.195Z,9.05
2017-07-17T10:50:35.046Z,6.95
2017-07-17T10:53:03.931Z,6.20
2017-07-17T10:55:32.817Z,6.43
2017-07-17T10:58:01.656Z,7.00
2017-07-17T11:00:30.179Z,6.05
2017-07-17T11:02:59.069Z,7.72
2017-07-17T11:05:27.960Z,6.10
2017-07-17T11:07:56.822Z,5.47
2017-07-17T11:10:25.671Z,4.55
2017-07-17T11:12:55.308Z,4.85
2017-07-17T11:15:24.158Z,6.00
2017-07-17T11:17:53.036Z,4.20
2017-07-17T11:20:21.906Z,4.10
2017-07-17T11:22:50.793Z,4.12
2017-07-17T11:25:19.660Z,4.47
2017-07-17T11:27:48.552Z,3.85
2017-07-17T11:30:17.438Z,4.97
2017-07-17T11:32:46.314Z,4.35
2017-07-17T11:35:15.272Z,4.45
2017-07-17T11:37:44.165Z,4.85
2017-07-17T11:40:13.050Z,4.12
2017-07-17T11:42:41.942Z,4.55
2017-07-17T11:45:10.833Z,4.28
2017-07-17T12:00:20.211Z,3.95
2017-07-17T12:02:49.089Z,4.95
2017-07-17T12:07:46.647Z,4.93
2017-07-17T12:10:15.540Z,4.45
2017-07-17T12:12:44.431Z,3.90
2017-07-17T12:15:13.322Z,4.43
2017-07-17T12:17:42.187Z,3.20
2017-07-17T12:20:11.083Z,3.17
2017-07-17T12:22:39.979Z,3.37
2017-07-17T12:25:08.866Z,3.60
2017-07-17T12:27:37.767Z,3.65
2017-07-17T12:30:06.655Z,3.87
2017-07-17T12:32:35.541Z,3.78
2017-07-17T12:35:04.458Z,3.33
2017-07-17T12:37:33.341Z,4.20
2017-07-17T12:40:02.234Z,3.35
2017-07-17T12:42:31.124Z,3.85
2017-07-17T12:45:00.018Z,3.70
2017-07-17T12:47:28.873Z,3.92
2017-07-17T12:49:57.760Z,4.30
2017-07-17T12:52:26.650Z,4.53
2017-07-17T12:54:55.537Z,5.32
2017-07-17T12:57:24.382Z,5.12
2017-07-17T12:59:53.238Z,4.72
2017-07-17T13:02:22.114Z,4.45
2017-07-17T13:04:51.022Z,4.65
2017-07-17T13:07:19.901Z,4.78
2017-07-17T13:09:48.791Z,4.47
2017-07-17T13:12:17.678Z,4.40
2017-07-17T13:14:46.556Z,4.97
2017-07-17T13:17:15.440Z,5.37
2017-07-17T13:19:44.330Z,4.18
2017-07-17T13:22:13.987Z,4.93
2017-07-17T13:24:42.878Z,4.60
2017-07-17T13:27:11.718Z,4.97
2017-07-17T13:29:40.385Z,5.40
2017-07-17T13:32:09.275Z,6.00
2017-07-17T13:34:38.666Z,6.07
2017-07-17T13:37:07.559Z,5.70
2017-07-17T13:39:36.186Z,5.53
2017-07-17T13:42:05.089Z,6.10
2017-07-17T13:44:33.686Z,5.40
2017-07-17T13:47:02.566Z,5.72
2017-07-17T13:49:31.161Z,5.43
2017-07-17T13:51:59.785Z,5.83
2017-07-17T13:54:28.397Z,5.10
2017-07-17T13:56:57.010Z,6.20
2017-07-17T13:59:25.628Z,6.40
2017-07-17T14:01:54.984Z,6.40
2017-07-17T14:04:23.684Z,5.60
2017-07-17T14:06:52.314Z,4.93
2017-07-17T14:09:20.599Z,4.27
2017-07-17T14:11:49.177Z,4.90
2017-07-17T14:14:17.768Z,4.80
2017-07-17T14:16:46.402Z,3.83
2017-07-17T14:19:15.026Z,4.00
2017-07-17T14:21:44.493Z,4.73
2017-07-17T14:24:13.119Z,4.53
2017-07-17T14:26:41.745Z,4.27
2017-07-17T14:29:10.365Z,4.53
2017-07-17T14:31:38.980Z,4.87
2017-07-17T14:34:07.570Z,4.77
2017-07-17T14:36:36.195Z,5.53
2017-07-17T14:39:04.125Z,5.30
2017-07-17T14:41:32.757Z,4.33
2017-07-17T14:46:40.389Z,5.13
2017-07-17T14:49:09.023Z,5.63
2017-07-17T14:51:37.651Z,4.40
2017-07-17T14:54:06.239Z,4.60
2017-07-17T14:56:34.857Z,5.20
2017-07-17T14:59:03.517Z,5.60
2017-07-17T15:01:32.129Z,6.03
2017-07-17T15:04:00.752Z,4.67
2017-07-17T15:06:30.082Z,5.20
2017-07-17T15:08:58.698Z,6.97
2017-07-17T15:11:27.583Z,6.60
2017-07-17T15:13:56.474Z,6.15
2017-07-17T15:16:25.365Z,6.82
2017-07-17T15:18:54.261Z,7.18
2017-07-17T15:21:23.150Z,7.07
2017-07-17T15:23:52.034Z,6.00
2017-07-17T15:26:20.940Z,5.78
2017-07-17T15:28:49.835Z,6.97
2017-07-17T15:31:18.721Z,7.28
2017-07-17T15:33:47.602Z,6.37
2017-07-17T15:36:17.267Z,6.90
2017-07-17T15:38:46.156Z,6.60
2017-07-17T15:41:15.108Z,6.30
2017-07-17T15:43:43.999Z,6.62
2017-07-17T15:46:12.630Z,6.33
2017-07-17T15:48:41.528Z,6.95
2017-07-17T15:51:10.414Z,7.10
2017-07-17T15:53:39.281Z,7.03
2017-07-17T15:56:07.918Z,6.13
2017-07-17T15:58:36.777Z,7.47
2017-07-17T16:01:06.420Z,6.68
2017-07-17T16:03:35.301Z,7.65
2017-07-17T16:06:04.177Z,8.32
2017-07-17T16:08:33.082Z,7.62
2017-07-17T16:11:01.982Z,6.40
2017-07-17T16:13:30.880Z,8.35
2017-07-17T16:15:59.766Z,8.27
2017-07-17T16:18:29.996Z,7.40
2017-07-17T16:20:58.889Z,7.68
2017-07-17T16:23:27.791Z,8.80
2017-07-17T16:25:56.697Z,7.75
2017-07-17T16:28:25.625Z,7.22
2017-07-17T16:30:54.534Z,7.80
2017-07-17T16:33:23.454Z,8.63
2017-07-17T16:35:52.383Z,8.70
2017-07-17T16:38:22.044Z,7.70
2017-07-17T16:40:50.949Z,9.15
2017-07-17T16:43:19.991Z,8.80
2017-07-17T16:45:49.146Z,8.23
2017-07-17T16:48:18.299Z,8.60
2017-07-17T16:50:47.408Z,8.27
2017-07-17T16:53:16.502Z,8.27
2017-07-17T16:55:45.548Z,8.88
2017-07-17T16:58:14.703Z,9.10
2017-07-17T17:00:43.814Z,9.00
2017-07-17T17:03:12.994Z,8.95
2017-07-17T17:05:42.173Z,9.65
2017-07-17T17:08:11.221Z,9.82
2017-07-17T17:10:40.391Z,8.77
2017-07-17T17:13:09.395Z,9.50
2017-07-17T17:15:38.616Z,10.60
2017-07-17T17:18:08.189Z,9.98
2017-07-17T17:20:37.433Z,11.18
2017-07-17T17:23:06.550Z,13.02
2017-07-17T17:25:36.439Z,13.75
2017-07-17T17:28:05.351Z,12.93
2017-07-17T17:30:34.270Z,12.18
2017-07-17T17:33:03.139Z,12.82
2017-07-17T17:35:32.036Z,14.77
2017-07-17T17:38:01.722Z,13.05
2017-07-17T17:40:30.634Z,12.63
2017-07-17T17:42:59.537Z,13.85
2017-07-17T17:45:28.467Z,14.15
2017-07-17T17:47:57.386Z,13.75
2017-07-17T17:50:26.303Z,12.98
2017-07-17T17:52:55.213Z,14.98
2017-07-17T17:55:24.128Z,13.32
2017-07-17T17:57:53.042Z,12.77
2017-07-17T18:00:21.944Z,12.15
2017-07-17T18:02:50.853Z,11.90
2017-07-17T18:05:19.717Z,12.20
2017-07-17T18:07:48.612Z,12.20
2017-07-17T18:10:17.526Z,12.37
2017-07-17T18:12:46.438Z,11.18
2017-07-17T18:15:16.104Z,12.07
2017-07-17T18:17:45.018Z,11.35
2017-07-17T18:20:13.937Z,11.02
2017-07-17T18:22:42.843Z,11.70
2017-07-17T18:25:12.561Z,11.07
2017-07-17T18:27:41.186Z,11.68
2017-07-17T18:30:10.089Z,10.65
2017-07-17T18:32:39.042Z,10.40
2017-07-17T18:35:07.939Z,11.43
2017-07-17T18:37:36.844Z,11.60
2017-07-17T18:40:05.751Z,9.65
2017-07-17T18:42:34.670Z,11.80
2017-07-17T18:45:04.656Z,10.70
2017-07-17T18:47:33.566Z,9.82
2017-07-17T18:50:02.457Z,8.68
2017-07-17T18:52:31.367Z,8.43
2017-07-17T18:55:01.109Z,8.55
2017-07-17T18:57:30.027Z,8.27
2017-07-17T18:59:58.952Z,7.97
2017-07-17T19:02:27.833Z,7.40
2017-07-17T19:04:56.723Z,7.82
2017-07-17T19:07:25.624Z,7.43
2017-07-17T19:09:54.505Z,6.43
2017-07-17T19:12:24.226Z,7.25
2017-07-17T19:14:53.897Z,7.00
2017-07-17T19:17:22.809Z,6.80
2017-07-17T19:19:51.664Z,6.80
2017-07-17T19:22:20.562Z,7.05
2017-07-17T19:24:50.161Z,6.72
2017-07-17T19:27:19.058Z,7.25
2017-07-17T19:29:47.963Z,6.65
2017-07-17T19:32:16.865Z,6.57
2017-07-17T19:34:45.774Z,5.85
2017-07-17T19:37:14.623Z,7.60
2017-07-17T19:39:43.483Z,6.32
2017-07-17T19:42:13.156Z,6.47
2017-07-17T19:44:42.052Z,7.10
2017-07-17T19:47:10.951Z,6.00
2017-07-17T19:49:39.833Z,6.68
2017-07-17T19:52:11.351Z,6.57
2017-07-17T19:54:41.177Z,7.35
2017-07-17T19:57:10.090Z,6.72
2017-07-17T19:59:40.534Z,6.82
2017-07-17T20:02:09.452Z,7.15
2017-07-17T20:04:38.371Z,7.47
2017-07-17T20:07:07.286Z,8.15
2017-07-17T20:09:36.165Z,7.37
2017-07-17T20:12:05.014Z,7.70
2017-07-17T20:14:33.867Z,7.35
2017-07-17T20:17:02.769Z,8.32
2017-07-17T20:19:31.652Z,8.27
2017-07-17T20:22:00.550Z,8.52
2017-07-17T20:24:29.443Z,7.97
2017-07-17T20:26:58.352Z,9.00
2017-07-17T20:29:27.273Z,8.80
2017-07-17T20:31:56.171Z,8.77
2017-07-17T20:34:25.069Z,8.77
2017-07-17T20:36:53.961Z,9.90
2017-07-17T20:39:22.873Z,9.60
2017-07-17T20:41:51.773Z,8.45
2017-07-17T20:44:20.669Z,8.80
2017-07-17T20:46:49.575Z,8.95
2017-07-17T20:49:18.466Z,9.35
2017-07-17T20:51:47.324Z,10.38
2017-07-17T20:54:16.216Z,8.48
2017-07-17T20:56:45.133Z,10.05
2017-07-17T20:59:14.042Z,9.90
2017-07-17T21:01:42.947Z,9.07
2017-07-17T21:04:12.624Z,8.70
2017-07-17T21:06:41.543Z,9.25
2017-07-17T21:09:10.444Z,10.40
2017-07-17T21:11:39.362Z,13.02
2017-07-17T21:14:08.262Z,14.40
2017-07-17T21:16:37.157Z,13.27
2017-07-17T21:19:06.070Z,13.70
2017-07-17T21:21:34.975Z,10.63
2017-07-17T21:24:03.878Z,9.90
2017-07-17T21:26:32.779Z,10.85
2017-07-17T21:29:02.444Z,11.77
2017-07-17T21:31:31.366Z,11.68
2017-07-17T21:34:00.270Z,10.48
2017-07-17T21:36:29.166Z,9.98
2017-07-17T21:38:58.834Z,9.55
2017-07-17T21:41:27.732Z,11.65
2017-07-17T21:43:56.633Z,10.45
2017-07-17T21:46:25.541Z,10.40
2017-07-17T21:48:54.446Z,9.15
2017-07-17T21:51:23.358Z,9.30
2017-07-17T21:53:52.224Z,9.35
2017-07-17T21:56:21.898Z,8.85
2017-07-17T21:58:50.818Z,9.75
2017-07-17T22:01:19.730Z,9.23
2017-07-17T22:03:49.406Z,8.63
2017-07-17T22:06:18.316Z,9.70
2017-07-17T22:08:47.209Z,9.32
2017-07-17T22:11:16.101Z,9.27
2017-07-17T22:13:45.019Z,9.40
2017-07-17T22:16:13.925Z,10.18
2017-07-17T22:18:42.826Z,10.40
2017-07-17T22:21:11.734Z,9.88
2017-07-17T22:23:41.311Z,10.32
2017-07-17T22:26:09.876Z,10.57
2017-07-17T22:28:38.594Z,9.82
2017-07-17T22:31:07.489Z,9.80
2017-07-17T22:33:36.395Z,10.80
2017-07-17T22:36:05.304Z,9.40
2017-07-17T22:38:34.214Z,10.68
2017-07-17T22:41:03.126Z,10.13
2017-07-17T22:43:32.045Z,10.20
2017-07-17T22:46:00.955Z,10.07
2017-07-17T22:48:29.870Z,10.18
2017-07-17T22:50:58.770Z,9.68
2017-07-17T22:53:27.639Z,11.02
2017-07-17T22:55:56.543Z,10.00
2017-07-17T22:58:25.451Z,11.02
2017-07-17T23:00:54.341Z,9.68
2017-07-17T23:03:23.254Z,10.68
2017-07-17T23:05:52.161Z,10.32
2017-07-17T23:08:21.067Z,10.90
2017-07-17T23:10:49.979Z,10.70
2017-07-17T23:13:18.878Z,10.10
2017-07-17T23:15:47.741Z,9.93
2017-07-17T23:18:16.631Z,9.70
2017-07-17T23:20:45.535Z,9.15
2017-07-17T23:23:14.440Z,9.35
2017-07-17T23:25:43.300Z,9.52
2017-07-17T23:28:12.203Z,9.27
2017-07-17T23:30:41.113Z,11.75
2017-07-17T23:33:10.022Z,9.73
2017-07-17T23:35:38.884Z,10.38
2017-07-17T23:38:07.757Z,10.98
2017-07-17T23:40:36.665Z,11.02
2017-07-17T23:43:05.561Z,10.68
2017-07-17T23:45:34.475Z,10.05
2017-07-17T23:48:03.377Z,11.18
2017-07-17T23:50:32.303Z,10.48
2017-07-17T23:53:01.205Z,10.73
2017-07-17T23:55:30.118Z,10.13
2017-07-17T23:57:59.023Z,10.05
